Time;durP1;ratioP1;P1;durP2;ratioP2;P2;SDS_P1;SDS_P2;PMS_P1;PMS_P2;Temp;Humidity;BMP_temperature;BMP_pressure;BME280_temperature;BME280_humidity;BME280_pressure;Samples;Min_cycle;Max_cycle;Signal;HPM_P1;HPM_P2
2023/11/04 00:01:17;;;;;;;4.70;2.63;;;9.90;99.90;;;;;;5012795;28;39072;-78
2023/11/04 00:03:44;;;;;;;5.00;2.20;;;9.90;99.90;;;;;;5020605;28;39354;-78
2023/11/04 00:06:11;;;;;;;7.27;2.80;;;9.90;99.90;;;;;;5025708;28;37174;-77
2023/11/04 00:08:37;;;;;;;5.00;2.93;;;9.90;99.90;;;;;;5021470;28;37968;-77
2023/11/04 00:11:03;;;;;;;7.20;2.67;;;9.90;99.90;;;;;;5008649;28;39854;-78
2023/11/04 00:13:29;;;;;;;5.03;2.77;;;9.90;99.90;;;;;;5009956;28;38208;-77
2023/11/04 00:15:56;;;;;;;7.40;2.67;;;10.00;99.90;;;;;;5009136;28;38149;-78
2023/11/04 00:18:22;;;;;;;6.90;3.10;;;10.00;99.90;;;;;;5008305;28;39168;-77
2023/11/04 00:20:48;;;;;;;4.77;2.80;;;10.00;99.90;;;;;;5009022;28;39827;-77
2023/11/04 00:23:14;;;;;;;7.80;2.80;;;10.00;99.90;;;;;;5025787;28;38604;-78
2023/11/04 00:25:40;;;;;;;7.30;2.67;;;10.00;99.90;;;;;;5018930;28;37816;-78
2023/11/04 00:28:06;;;;;;;6.57;2.90;;;10.10;99.90;;;;;;5008802;28;40678;-78
2023/11/04 00:30:32;;;;;;;4.80;3.00;;;10.10;99.90;;;;;;5026390;28;37263;-78
2023/11/04 00:32:58;;;;;;;8.00;3.00;;;10.10;99.90;;;;;;5026035;28;37900;-77
2023/11/04 00:35:25;;;;;;;8.07;3.40;;;10.10;99.90;;;;;;5006069;28;38045;-77
2023/11/04 00:37:51;;;;;;;8.40;3.10;;;10.10;99.90;;;;;;5034689;28;38324;-77
2023/11/04 00:40:17;;;;;;;5.03;3.00;;;10.10;99.90;;;;;;5009596;28;38491;-78
2023/11/04 00:42:44;;;;;;;7.03;3.10;;;10.20;99.90;;;;;;5019983;28;38316;-77
2023/11/04 00:45:10;;;;;;;6.10;3.47;;;10.20;99.90;;;;;;5007446;28;38026;-77
2023/11/04 00:47:36;;;;;;;9.80;3.50;;;10.20;99.90;;;;;;5018286;28;39559;-78
2023/11/04 00:50:02;;;;;;;9.53;3.30;;;10.20;99.90;;;;;;5010774;28;35951;-77
2023/11/04 00:52:28;;;;;;;9.27;3.50;;;10.30;99.90;;;;;;5006424;28;38273;-78
2023/11/04 00:54:54;;;;;;;7.27;3.73;;;10.30;99.90;;;;;;5008229;28;36409;-77
2023/11/04 00:57:20;;;;;;;5.83;3.30;;;10.30;99.90;;;;;;5007377;28;39035;-77
2023/11/04 00:59:46;;;;;;;8.07;3.70;;;10.30;99.90;;;;;;5011912;28;40229;-78
2023/11/04 01:02:13;;;;;;;7.77;4.10;;;10.30;99.90;;;;;;5026214;28;37537;-77
2023/11/04 01:04:39;;;;;;;7.63;3.30;;;10.30;99.90;;;;;;5009087;28;36102;-77
2023/11/04 01:07:05;;;;;;;10.17;4.00;;;10.30;99.90;;;;;;5009101;28;39245;-78
2023/11/04 01:09:31;;;;;;;7.20;3.63;;;10.30;99.90;;;;;;5010922;28;39234;-78
2023/11/04 01:11:58;;;;;;;11.90;3.80;;;10.30;99.90;;;;;;5008696;28;36219;-77
2023/11/04 01:14:24;;;;;;;8.47;3.50;;;10.30;99.90;;;;;;5010632;28;37837;-77
2023/11/04 01:16:50;;;;;;;11.20;4.27;;;10.30;99.90;;;;;;5021811;28;38951;-77
2023/11/04 01:19:16;;;;;;;6.77;3.53;;;10.30;99.90;;;;;;5014936;28;38756;-78
2023/11/04 01:21:42;;;;;;;7.07;3.90;;;10.30;99.90;;;;;;5019076;28;39339;-78
2023/11/04 01:24:08;;;;;;;6.60;3.90;;;10.40;99.90;;;;;;5017231;28;35916;-78
2023/11/04 01:26:34;;;;;;;6.00;3.90;;;10.30;99.90;;;;;;5031623;28;39039;-78
2023/11/04 01:29:00;;;;;;;6.63;3.73;;;10.40;99.90;;;;;;5006517;28;39032;-78
2023/11/04 01:31:27;;;;;;;8.80;4.47;;;10.40;99.90;;;;;;5022319;28;47095;-77
2023/11/04 01:33:53;;;;;;;8.43;4.07;;;10.40;99.90;;;;;;5026831;28;36115;-77
2023/11/04 01:36:19;;;;;;;6.03;4.07;;;10.30;99.90;;;;;;5028989;28;38675;-78
2023/11/04 01:38:45;;;;;;;10.20;4.73;;;10.30;99.90;;;;;;5008180;28;38971;-77
2023/11/04 01:41:11;;;;;;;9.43;4.43;;;10.40;99.90;;;;;;5038755;28;37608;-77
2023/11/04 01:43:37;;;;;;;10.27;4.83;;;10.30;99.90;;;;;;5017083;28;37993;-77
2023/11/04 01:46:09;;;;;;;8.17;4.87;;;10.30;99.90;;;;;;5018075;28;38027;-77
2023/11/04 01:48:36;;;;;;;8.20;4.68;;;10.30;99.90;;;;;;5019428;28;39624;-77
2023/11/04 01:51:03;;;;;;;10.07;4.40;;;10.30;99.90;;;;;;5016335;28;36430;-78
2023/11/04 01:53:31;;;;;;;8.63;5.00;;;10.30;99.90;;;;;;5018589;28;36067;-77
2023/11/04 01:55:57;;;;;;;9.20;4.97;;;10.30;99.90;;;;;;5015248;28;40407;-77
2023/11/04 01:58:23;;;;;;;10.83;4.60;;;10.30;99.90;;;;;;5020876;28;38744;-77
2023/11/04 02:03:26;;;;;;;8.97;4.20;;;10.30;99.90;;;;;;5177103;22;20414;-81
2023/11/04 02:05:53;;;;;;;10.73;4.25;;;10.30;99.90;;;;;;4996266;28;37584;-81
2023/11/04 02:08:20;;;;;;;7.97;4.72;;;10.30;99.90;;;;;;5001734;28;38207;-82
2023/11/04 02:10:46;;;;;;;7.73;4.30;;;10.20;99.90;;;;;;5007242;28;36352;-81
2023/11/04 02:13:13;;;;;;;12.40;4.60;;;10.20;99.90;;;;;;5008029;28;37500;-80
2023/11/04 02:15:39;;;;;;;12.60;5.23;;;10.20;99.90;;;;;;5002027;28;38853;-82
2023/11/04 02:18:05;;;;;;;10.03;4.43;;;10.10;99.90;;;;;;4996246;28;37338;-81
2023/11/04 02:20:34;;;;;;;9.67;5.00;;;10.10;99.90;;;;;;5004578;28;36343;-81
2023/11/04 02:23:00;;;;;;;8.17;4.27;;;10.10;99.90;;;;;;5002180;28;36896;-81
2023/11/04 02:25:31;;;;;;;10.13;4.70;;;10.00;99.90;;;;;;5012379;28;39648;-80
2023/11/04 02:27:57;;;;;;;8.27;4.77;;;10.00;99.90;;;;;;4996463;28;38388;-81
2023/11/04 02:30:24;;;;;;;8.73;4.23;;;10.00;99.90;;;;;;5002117;28;36726;-81
2023/11/04 02:32:51;;;;;;;7.70;4.50;;;10.00;99.90;;;;;;5006978;28;36551;-81
2023/11/04 02:35:17;;;;;;;9.63;4.90;;;10.00;99.90;;;;;;5007190;28;38130;-81
2023/11/04 02:37:44;;;;;;;10.60;5.13;;;9.90;99.90;;;;;;5009802;28;38483;-81
2023/11/04 02:40:11;;;;;;;9.33;5.37;;;9.90;99.90;;;;;;5000620;28;36834;-81
2023/11/04 02:42:37;;;;;;;7.87;4.57;;;9.90;99.90;;;;;;5005971;28;39574;-80
2023/11/04 02:45:04;;;;;;;12.37;4.87;;;9.90;99.90;;;;;;4995940;28;37816;-81
2023/11/04 02:47:31;;;;;;;7.73;4.83;;;9.90;99.90;;;;;;5001050;28;47263;-77
2023/11/04 02:49:57;;;;;;;6.67;4.50;;;9.80;99.90;;;;;;4998560;28;36211;-79
2023/11/04 02:52:23;;;;;;;7.80;4.30;;;9.90;99.90;;;;;;4998486;28;37885;-81
2023/11/04 02:54:49;;;;;;;9.30;5.60;;;9.90;99.90;;;;;;5003354;28;38169;-81
2023/11/04 02:57:15;;;;;;;10.87;5.00;;;9.80;99.90;;;;;;4997318;28;38215;-77
2023/11/04 02:59:41;;;;;;;9.47;4.73;;;9.80;99.90;;;;;;4997316;28;38626;-80
2023/11/04 03:02:08;;;;;;;8.77;5.07;;;9.80;99.90;;;;;;5002532;28;36093;-80
2023/11/04 03:04:37;;;;;;;10.33;4.37;;;9.90;99.90;;;;;;5002272;28;38669;-80
2023/11/04 03:07:03;;;;;;;13.77;4.23;;;9.80;99.90;;;;;;4995988;28;36180;-80
2023/11/04 03:09:30;;;;;;;9.93;4.43;;;9.80;99.90;;;;;;4999519;28;36987;-80
2023/11/04 03:11:56;;;;;;;12.30;4.70;;;9.80;99.90;;;;;;5000851;28;37854;-81
2023/11/04 03:14:26;;;;;;;10.33;5.30;;;9.80;99.90;;;;;;4996935;28;38538;-80
2023/11/04 03:16:53;;;;;;;7.03;4.73;;;9.80;99.90;;;;;;5018613;28;36488;-81
2023/11/04 03:19:20;;;;;;;7.70;4.23;;;9.90;99.90;;;;;;5013235;28;36042;-80
2023/11/04 03:21:46;;;;;;;9.97;5.00;;;9.90;99.90;;;;;;4999498;28;36047;-81
2023/11/04 03:24:14;;;;;;;10.50;4.60;;;9.90;99.90;;;;;;4995343;28;39174;-80
2023/11/04 03:26:40;;;;;;;11.47;4.87;;;9.90;99.90;;;;;;4999339;28;37508;-81
2023/11/04 03:29:07;;;;;;;9.27;4.93;;;9.90;99.90;;;;;;4997337;28;38917;-82
2023/11/04 03:31:34;;;;;;;7.93;4.30;;;9.90;99.90;;;;;;4997913;28;38469;-80
2023/11/04 03:34:00;;;;;;;8.03;3.80;;;9.90;99.90;;;;;;4996482;28;39413;-80
2023/11/04 03:36:26;;;;;;;7.23;4.00;;;9.90;99.90;;;;;;4994473;28;37188;-81
2023/11/04 03:38:52;;;;;;;7.27;3.90;;;9.90;99.90;;;;;;5004050;28;37274;-81
2023/11/04 03:41:24;;;;;;;8.33;4.37;;;9.80;99.90;;;;;;5000654;28;36203;-79
2023/11/04 03:43:50;;;;;;;8.73;4.60;;;9.80;99.90;;;;;;5005075;28;39502;-80
2023/11/04 03:46:18;;;;;;;7.87;4.10;;;9.70;99.90;;;;;;4996082;28;39613;-80
2023/11/04 03:48:45;;;;;;;8.47;4.73;;;9.70;99.90;;;;;;4999319;28;37920;-81
2023/11/04 03:51:12;;;;;;;10.47;3.67;;;9.60;99.90;;;;;;4998523;28;36341;-79
2023/11/04 03:53:38;;;;;;;9.43;4.30;;;9.60;99.90;;;;;;5004864;28;37864;-81
2023/11/04 03:56:12;;;;;;;6.63;3.90;;;9.60;99.90;;;;;;4979753;28;39010;-80
2023/11/04 03:58:38;;;;;;;11.97;4.57;;;9.60;99.90;;;;;;4991321;28;37399;-82
2023/11/04 04:01:05;;;;;;;10.60;4.67;;;9.70;99.90;;;;;;5000265;28;36107;-81
2023/11/04 04:03:31;;;;;;;11.40;5.47;;;9.70;99.90;;;;;;5000619;28;38079;-81
2023/11/04 04:05:57;;;;;;;11.90;5.20;;;9.70;99.90;;;;;;5001151;28;39199;-80
2023/11/04 04:08:23;;;;;;;12.00;6.00;;;9.70;99.90;;;;;;5001305;28;37518;-80
2023/11/04 04:10:49;;;;;;;13.00;5.47;;;9.70;99.90;;;;;;5008660;28;37027;-81
2023/11/04 04:13:16;;;;;;;11.93;6.27;;;9.70;99.90;;;;;;5003904;28;39024;-80
2023/11/04 04:15:42;;;;;;;14.73;7.50;;;9.60;99.90;;;;;;5011209;28;37408;-80
2023/11/04 04:18:08;;;;;;;14.77;6.63;;;9.60;99.90;;;;;;5013676;28;36538;-79
2023/11/04 04:20:34;;;;;;;10.53;6.97;;;9.50;99.90;;;;;;5013414;28;37960;-81
2023/11/04 04:23:00;;;;;;;17.20;7.53;;;9.50;99.90;;;;;;5008351;28;38744;-79
2023/11/04 04:25:26;;;;;;;16.67;8.00;;;9.50;99.90;;;;;;5009057;28;38588;-81
2023/11/04 04:27:52;;;;;;;14.90;7.80;;;9.40;99.90;;;;;;5001943;28;36882;-79
2023/11/04 04:30:18;;;;;;;16.90;8.07;;;9.40;99.90;;;;;;5002641;28;37107;-80
2023/11/04 04:32:46;;;;;;;14.33;7.70;;;9.40;99.90;;;;;;5004173;28;38897;-80
2023/11/04 04:35:12;;;;;;;18.63;8.30;;;9.40;99.90;;;;;;5006066;28;37544;-80
2023/11/04 04:37:38;;;;;;;17.77;8.23;;;9.40;99.90;;;;;;5000089;28;36630;-82
2023/11/04 04:40:06;;;;;;;11.13;6.87;;;9.40;99.90;;;;;;5001137;28;37203;-81
2023/11/04 04:42:32;;;;;;;12.27;7.23;;;9.50;99.90;;;;;;5003224;28;47499;-80
2023/11/04 04:44:58;;;;;;;12.97;7.50;;;9.50;99.90;;;;;;5005674;28;37191;-79
2023/11/04 04:47:24;;;;;;;11.07;6.13;;;9.50;99.90;;;;;;4999480;28;36828;-79
2023/11/04 04:49:50;;;;;;;13.60;6.57;;;9.60;99.90;;;;;;4995496;28;36015;-77
2023/11/04 04:52:17;;;;;;;10.00;6.20;;;9.60;99.90;;;;;;5002001;28;39132;-77
2023/11/04 04:54:43;;;;;;;10.83;5.20;;;9.60;99.90;;;;;;5002591;28;38430;-77
2023/11/04 04:57:09;;;;;;;15.23;6.27;;;9.60;99.90;;;;;;4998491;28;37790;-80
2023/11/04 04:59:35;;;;;;;11.73;5.93;;;9.60;99.90;;;;;;4999939;28;38165;-81
2023/11/04 05:02:05;;;;;;;11.07;5.53;;;9.50;99.90;;;;;;5001226;28;38636;-80
2023/11/04 05:04:33;;;;;;;14.37;6.37;;;9.50;99.90;;;;;;4999116;28;37656;-81
2023/11/04 05:06:59;;;;;;;13.10;6.63;;;9.50;99.90;;;;;;5004686;28;37441;-80
2023/11/04 05:09:26;;;;;;;19.03;7.53;;;9.50;99.90;;;;;;5004618;28;35950;-81
2023/11/04 05:11:52;;;;;;;13.17;7.33;;;9.50;99.90;;;;;;5002686;28;37632;-80
2023/11/04 05:14:18;;;;;;;11.00;7.07;;;9.50;99.90;;;;;;5003157;28;37268;-82
2023/11/04 05:16:44;;;;;;;15.23;7.63;;;9.50;99.90;;;;;;4993185;28;38092;-80
2023/11/04 05:19:10;;;;;;;16.93;6.97;;;9.50;99.90;;;;;;4998493;28;37328;-80
2023/11/04 05:21:37;;;;;;;18.50;7.37;;;9.50;99.90;;;;;;5002606;28;39473;-81
2023/11/04 05:24:03;;;;;;;14.37;7.07;;;9.50;99.90;;;;;;5008985;28;38323;-81
2023/11/04 05:26:29;;;;;;;15.33;6.40;;;9.50;99.90;;;;;;5006713;28;36983;-81
2023/11/04 05:28:55;;;;;;;15.13;6.67;;;9.50;99.90;;;;;;4987516;28;37522;-81
2023/11/04 05:31:21;;;;;;;14.27;6.87;;;9.60;99.90;;;;;;5006007;28;39149;-81
2023/11/04 05:33:48;;;;;;;13.23;6.97;;;9.60;99.90;;;;;;5003765;28;37156;-80
2023/11/04 05:36:18;;;;;;;15.00;6.50;;;9.50;99.90;;;;;;4999621;28;38399;-81
2023/11/04 05:38:45;;;;;;;18.60;6.40;;;9.60;99.90;;;;;;5007089;28;36706;-82
2023/11/04 05:41:11;;;;;;;19.37;6.33;;;9.60;99.90;;;;;;5002680;28;38977;-80
2023/11/04 05:43:38;;;;;;;14.57;6.27;;;9.60;99.90;;;;;;5000488;28;38904;-80
2023/11/04 05:46:07;;;;;;;11.80;5.50;;;9.60;99.90;;;;;;4999160;28;36752;-81
2023/11/04 05:48:35;;;;;;;12.67;5.60;;;9.70;99.90;;;;;;5006669;28;36551;-81
2023/11/04 05:51:01;;;;;;;12.90;6.30;;;9.60;99.90;;;;;;5006213;28;38906;-81
2023/11/04 05:53:27;;;;;;;10.33;5.67;;;9.70;99.90;;;;;;5006841;28;47114;-82
2023/11/04 05:55:53;;;;;;;20.33;5.90;;;9.70;99.90;;;;;;5006002;28;37293;-81
2023/11/04 05:58:19;;;;;;;9.63;5.40;;;9.70;99.90;;;;;;4994104;28;36973;-80
2023/11/04 06:00:46;;;;;;;15.23;5.67;;;9.80;99.90;;;;;;5007787;28;39840;-81
2023/11/04 06:03:12;;;;;;;12.70;5.37;;;9.80;99.90;;;;;;4999809;28;37519;-80
2023/11/04 06:05:38;;;;;;;17.23;6.53;;;9.80;99.90;;;;;;5001716;28;37527;-82
2023/11/04 06:08:04;;;;;;;12.47;6.13;;;9.80;99.90;;;;;;5005999;28;37310;-81
2023/11/04 06:10:30;;;;;;;14.07;6.17;;;9.90;99.90;;;;;;4999352;28;37919;-82
2023/11/04 06:12:56;;;;;;;17.20;6.77;;;9.90;99.90;;;;;;5018736;28;35675;-81
2023/11/04 06:15:23;;;;;;;10.80;5.47;;;9.90;99.90;;;;;;5007285;28;37340;-82
2023/11/04 06:17:50;;;;;;;18.40;5.73;;;9.90;99.90;;;;;;4999787;28;38477;-81
2023/11/04 06:20:18;;;;;;;13.90;5.83;;;9.80;99.90;;;;;;4998040;28;39319;-81
2023/11/04 06:22:44;;;;;;;15.63;5.70;;;9.90;99.90;;;;;;5000044;28;37502;-80
2023/11/04 06:25:11;;;;;;;16.90;5.20;;;9.90;99.90;;;;;;5001949;28;37392;-80
2023/11/04 06:27:37;;;;;;;15.20;4.80;;;9.90;99.90;;;;;;5004575;28;37077;-81
2023/11/04 06:30:03;;;;;;;15.07;4.40;;;9.80;99.90;;;;;;4999090;28;38940;-80
2023/11/04 06:32:30;;;;;;;13.50;4.57;;;9.80;99.90;;;;;;4996507;28;37923;-81
2023/11/04 06:34:58;;;;;;;13.67;4.20;;;9.70;99.90;;;;;;5000996;28;37866;-82
2023/11/04 06:37:24;;;;;;;14.87;3.73;;;9.80;99.90;;;;;;4998594;28;36166;-82
2023/11/04 06:39:50;;;;;;;15.13;3.97;;;9.80;99.90;;;;;;4993490;28;38565;-82
2023/11/04 06:42:20;;;;;;;12.50;3.30;;;9.80;99.90;;;;;;4999907;28;38613;-85
2023/11/04 06:44:46;;;;;;;14.97;3.07;;;9.80;99.90;;;;;;4997957;28;38295;-82
2023/11/04 06:47:12;;;;;;;11.60;3.00;;;9.90;99.90;;;;;;4998342;28;37483;-82
2023/11/04 06:49:39;;;;;;;7.63;4.23;;;9.90;99.90;;;;;;5002340;28;37533;-82
2023/11/04 06:52:05;;;;;;;8.43;3.73;;;9.90;99.90;;;;;;4991483;28;38229;-82
2023/11/04 06:54:31;;;;;;;19.53;4.83;;;9.90;99.90;;;;;;4996903;28;36820;-83
2023/11/04 06:56:57;;;;;;;13.83;3.37;;;9.90;99.90;;;;;;4997502;28;36425;-83
2023/11/04 06:59:23;;;;;;;16.20;4.07;;;9.90;99.90;;;;;;5000863;28;38959;-81
2023/11/04 07:01:50;;;;;;;12.23;4.20;;;9.90;99.90;;;;;;4998124;28;37507;-83
2023/11/04 07:04:16;;;;;;;18.33;4.63;;;9.90;99.90;;;;;;4993284;28;36532;-83
2023/11/04 07:06:42;;;;;;;17.60;4.40;;;9.90;99.90;;;;;;4997661;28;36765;-76
2023/11/04 07:09:10;;;;;;;11.52;3.67;;;9.90;99.90;;;;;;5004441;28;39000;-82
2023/11/04 07:11:36;;;;;;;10.73;4.10;;;9.90;99.90;;;;;;5008392;28;39333;-81
2023/11/04 07:14:02;;;;;;;11.17;3.37;;;9.90;99.90;;;;;;5017630;28;36980;-84
2023/11/04 07:16:29;;;;;;;13.17;3.20;;;9.90;99.90;;;;;;5002556;28;36177;-82
2023/11/04 07:18:55;;;;;;;13.33;3.70;;;9.90;99.90;;;;;;4993723;28;39771;-82
2023/11/04 07:21:21;;;;;;;9.57;3.40;;;9.90;99.90;;;;;;4994455;28;37336;-88
2023/11/04 07:23:47;;;;;;;11.83;3.70;;;9.90;99.90;;;;;;4984748;28;36537;-79
2023/11/04 07:26:13;;;;;;;7.40;3.33;;;9.90;99.90;;;;;;4974967;28;36000;-84
2023/11/04 07:28:40;;;;;;;10.10;3.40;;;9.90;99.90;;;;;;4982447;28;38130;-81
2023/11/04 07:31:07;;;;;;;8.50;3.27;;;10.00;99.90;;;;;;4989839;28;38301;-80
2023/11/04 07:33:34;;;;;;;10.50;3.40;;;10.00;99.90;;;;;;5000240;28;37746;-82
2023/11/04 07:36:00;;;;;;;15.57;3.83;;;10.00;99.90;;;;;;5001882;28;37322;-77
2023/11/04 07:38:26;;;;;;;13.33;4.23;;;10.00;99.90;;;;;;4991273;28;37658;-76
2023/11/04 07:40:53;;;;;;;14.67;4.13;;;10.10;99.90;;;;;;4999478;28;37914;-78
2023/11/04 07:43:19;;;;;;;11.10;3.47;;;10.00;99.90;;;;;;5004519;28;36383;-81
2023/11/04 07:45:45;;;;;;;11.47;3.80;;;10.00;99.90;;;;;;5001087;28;37504;-81
2023/11/04 07:48:15;;;;;;;16.07;4.97;;;10.10;99.90;;;;;;4997544;28;36147;-81
2023/11/04 07:50:41;;;;;;;16.33;5.17;;;10.00;99.90;;;;;;4997604;28;38500;-80
2023/11/04 07:53:08;;;;;;;10.20;3.87;;;10.00;99.90;;;;;;5007522;28;37669;-79
2023/11/04 07:55:34;;;;;;;11.73;3.83;;;10.00;99.90;;;;;;5005437;28;37145;-81
2023/11/04 07:58:00;;;;;;;17.70;3.83;;;9.90;99.90;;;;;;5005085;28;37524;-81
2023/11/04 08:00:27;;;;;;;15.13;4.37;;;10.00;99.90;;;;;;5000535;28;39389;-80
2023/11/04 08:02:53;;;;;;;10.20;3.23;;;10.00;99.90;;;;;;5005426;28;38272;-79
2023/11/04 08:05:19;;;;;;;17.63;4.17;;;9.90;99.90;;;;;;5004021;28;35461;-81
2023/11/04 08:07:45;;;;;;;13.50;3.20;;;9.90;99.90;;;;;;4999777;28;39140;-80
2023/11/04 08:10:12;;;;;;;15.03;3.40;;;9.90;99.90;;;;;;5001966;28;37573;-81
2023/11/04 08:12:38;;;;;;;13.07;2.93;;;10.00;99.90;;;;;;4999319;28;38452;-82
2023/11/04 08:15:07;;;;;;;13.33;3.23;;;9.90;99.90;;;;;;4995204;28;36657;-80
2023/11/04 08:17:33;;;;;;;11.77;2.97;;;10.00;99.90;;;;;;4998612;28;47186;-80
2023/11/04 08:20:03;;;;;;;12.33;2.53;;;10.00;99.90;;;;;;4992162;28;38179;-81
2023/11/04 08:22:29;;;;;;;10.20;2.97;;;10.00;99.90;;;;;;4998491;28;36401;-81
2023/11/04 08:24:56;;;;;;;13.10;3.17;;;10.10;99.90;;;;;;4993579;28;36992;-81
2023/11/04 08:27:22;;;;;;;14.37;2.33;;;10.10;99.90;;;;;;5000312;28;38966;-80
2023/11/04 08:29:48;;;;;;;18.50;2.90;;;10.10;99.90;;;;;;4998773;28;39132;-79
2023/11/04 08:32:14;;;;;;;13.00;3.07;;;10.20;99.90;;;;;;4997793;28;36402;-79
2023/11/04 08:34:40;;;;;;;13.80;3.23;;;10.20;99.90;;;;;;5001744;28;33975;-79
2023/11/04 08:37:07;;;;;;;13.90;3.17;;;10.20;99.90;;;;;;5006324;28;39680;-81
2023/11/04 08:39:34;;;;;;;12.33;2.97;;;10.20;99.90;;;;;;5006650;28;39828;-81
2023/11/04 08:42:01;;;;;;;10.80;2.60;;;10.30;99.90;;;;;;5007999;28;37574;-81
2023/11/04 08:44:27;;;;;;;12.03;2.13;;;10.30;99.90;;;;;;5008329;28;47733;-81
2023/11/04 08:46:53;;;;;;;13.90;2.73;;;10.40;99.90;;;;;;5002803;28;38411;-81
2023/11/04 08:49:19;;;;;;;7.87;2.10;;;10.50;99.90;;;;;;5009898;28;37456;-79
2023/11/04 08:51:45;;;;;;;7.10;2.17;;;10.50;99.90;;;;;;5010075;28;38039;-80
2023/11/04 08:54:13;;;;;;;11.97;2.60;;;10.50;99.90;;;;;;5004721;28;36641;-81
2023/11/04 08:56:39;;;;;;;12.00;2.27;;;10.50;99.90;;;;;;5004145;28;39200;-81
2023/11/04 08:59:05;;;;;;;13.87;2.40;;;10.50;99.90;;;;;;5005272;28;37950;-80
2023/11/04 09:01:31;;;;;;;7.17;1.83;;;10.50;99.90;;;;;;5007615;28;36819;-81
2023/11/04 09:03:57;;;;;;;9.33;2.27;;;10.50;99.90;;;;;;5001861;28;35945;-81
2023/11/04 09:06:24;;;;;;;10.53;2.10;;;10.40;99.90;;;;;;5013522;28;36060;-81
2023/11/04 09:08:50;;;;;;;11.07;2.03;;;10.50;99.90;;;;;;4997397;28;38683;-81
2023/11/04 09:11:16;;;;;;;11.73;2.25;;;10.40;99.90;;;;;;5000322;28;37184;-82
2023/11/04 09:13:43;;;;;;;13.70;1.87;;;10.50;99.90;;;;;;5007691;28;36605;-81
2023/11/04 09:16:09;;;;;;;6.97;2.47;;;10.50;99.90;;;;;;5007698;28;37844;-80
2023/11/04 09:18:39;;;;;;;11.77;2.80;;;10.50;99.90;;;;;;4997874;28;37020;-80
2023/11/04 09:21:05;;;;;;;7.90;1.57;;;10.50;99.90;;;;;;5004279;28;37737;-80
2023/11/04 09:23:31;;;;;;;5.87;2.07;;;10.50;99.90;;;;;;4996358;28;35938;-80
2023/11/04 09:25:57;;;;;;;7.40;1.93;;;10.40;99.90;;;;;;5010156;28;38652;-81
2023/11/04 09:28:23;;;;;;;8.40;2.00;;;10.40;99.90;;;;;;5009979;28;39479;-81
2023/11/04 09:30:51;;;;;;;11.67;1.97;;;10.40;99.90;;;;;;5006267;28;37908;-80
2023/11/04 09:33:17;;;;;;;8.47;2.00;;;10.40;99.90;;;;;;4999735;28;37542;-81
2023/11/04 09:35:44;;;;;;;6.83;2.00;;;10.50;99.90;;;;;;5007231;28;39362;-79
2023/11/04 09:38:10;;;;;;;8.70;2.17;;;10.40;99.90;;;;;;5003694;28;37164;-80
2023/11/04 09:40:36;;;;;;;11.77;2.13;;;10.50;99.90;;;;;;4998408;28;39055;-80
2023/11/04 09:43:02;;;;;;;6.83;2.03;;;10.60;99.90;;;;;;5003344;28;36249;-81
2023/11/04 09:45:29;;;;;;;9.10;1.90;;;10.60;99.90;;;;;;5002978;28;38540;-80
2023/11/04 09:47:56;;;;;;;11.47;1.93;;;10.60;99.90;;;;;;5005042;28;37417;-79
2023/11/04 09:50:22;;;;;;;6.97;1.70;;;10.60;99.90;;;;;;5003694;28;37103;-81
2023/11/04 09:53:00;;;;;;;10.47;2.20;;;10.60;99.90;;;;;;5001944;28;37606;-81
2023/11/04 09:55:26;;;;;;;16.60;2.60;;;10.60;99.90;;;;;;5001599;28;38623;-81
2023/11/04 09:57:54;;;;;;;10.33;2.13;;;10.50;99.90;;;;;;5001290;28;37673;-81
2023/11/04 10:00:23;;;;;;;15.37;2.60;;;10.60;99.90;;;;;;5005407;28;38961;-80
2023/11/04 10:02:49;;;;;;;7.60;1.80;;;10.60;99.90;;;;;;5007602;28;47419;-80
2023/11/04 10:05:16;;;;;;;11.07;2.07;;;10.50;99.90;;;;;;4995932;28;37670;-80
2023/11/04 10:07:43;;;;;;;5.97;1.60;;;10.50;99.90;;;;;;5000366;28;37355;-80
2023/11/04 10:10:11;;;;;;;8.53;2.00;;;10.50;99.90;;;;;;5001472;28;37051;-81
2023/11/04 10:12:40;;;;;;;7.20;1.80;;;10.50;99.90;;;;;;5003853;28;37325;-80
2023/11/04 10:15:06;;;;;;;8.53;2.47;;;10.50;99.90;;;;;;5005117;28;39273;-82
2023/11/04 10:17:35;;;;;;;9.03;1.70;;;10.50;99.90;;;;;;5001886;28;39457;-82
2023/11/04 10:20:09;;;;;;;15.20;2.20;;;10.50;99.90;;;;;;4991966;28;38941;-81
2023/11/04 10:22:35;;;;;;;13.27;2.10;;;10.60;99.90;;;;;;5003103;28;47022;-81
2023/11/04 10:25:02;;;;;;;8.97;1.80;;;10.60;99.90;;;;;;4997811;28;39069;-80
2023/11/04 10:27:28;;;;;;;8.67;2.13;;;10.50;99.90;;;;;;4998364;28;38867;-79
2023/11/04 10:29:54;;;;;;;9.20;1.83;;;10.60;99.90;;;;;;5004997;28;38213;-80
2023/11/04 10:32:22;;;;;;;7.17;1.80;;;10.60;99.90;;;;;;5003566;28;35955;-79
2023/11/04 10:34:50;;;;;;;7.37;1.33;;;10.50;99.90;;;;;;5001319;28;38013;-78
2023/11/04 10:37:19;;;;;;;6.77;1.30;;;10.50;99.90;;;;;;5006078;28;38585;-78
2023/11/04 10:39:48;;;;;;;7.60;2.37;;;10.50;99.90;;;;;;4993278;28;36925;-77
2023/11/04 10:42:18;;;;;;;4.33;1.30;;;10.40;99.90;;;;;;5002565;28;36094;-80
2023/11/04 10:44:48;;;;;;;7.40;1.47;;;10.30;99.90;;;;;;5006184;28;40008;-81
2023/11/04 10:47:52;;;;;;;8.27;1.60;;;10.20;99.90;;;;;;4997016;28;39180;-79
2023/11/04 10:50:25;;;;;;;7.17;1.47;;;10.10;99.90;;;;;;5000443;28;37444;-79
2023/11/04 10:53:13;;;;;;;7.22;1.40;;;10.10;99.90;;;;;;4994637;28;37421;-80
2023/11/04 10:56:03;;;;;;;10.23;1.40;;;9.90;99.90;;;;;;4999785;28;48119;-80
2023/11/04 10:58:41;;;;;;;9.47;1.37;;;9.90;99.90;;;;;;4995096;28;47340;-79
2023/11/04 11:01:09;;;;;;;6.07;1.30;;;9.80;99.90;;;;;;4991824;28;39286;-79
2023/11/04 11:03:37;;;;;;;8.53;1.40;;;9.70;99.90;;;;;;5000478;28;36451;-80
2023/11/04 11:06:05;;;;;;;4.50;1.00;;;9.70;99.90;;;;;;4993118;28;38695;-80
2023/11/04 11:08:32;;;;;;;4.47;1.30;;;9.70;99.90;;;;;;4999697;28;38559;-79
2023/11/04 11:11:24;;;;;;;6.87;0.90;;;9.70;99.90;;;;;;5000681;28;36914;-80
2023/11/04 11:13:53;;;;;;;11.00;1.43;;;9.60;99.90;;;;;;4988045;28;47148;-81
2023/11/04 11:16:20;;;;;;;6.20;1.20;;;9.70;99.90;;;;;;5000480;28;37574;-79
2023/11/04 11:18:46;;;;;;;4.90;1.00;;;9.70;99.90;;;;;;5002383;28;38215;-79
2023/11/04 11:21:13;;;;;;;6.80;1.57;;;9.70;99.90;;;;;;5006974;28;37957;-80
2023/11/04 11:23:39;;;;;;;10.07;1.80;;;9.80;99.90;;;;;;5004651;28;36023;-79
2023/11/04 11:26:13;;;;;;;7.43;1.10;;;9.80;99.90;;;;;;4999721;28;38727;-78
2023/11/04 11:28:41;;;;;;;6.27;1.73;;;9.80;99.90;;;;;;4997664;28;37325;-88
2023/11/04 11:31:11;;;;;;;11.93;1.27;;;9.80;99.90;;;;;;4996699;28;36944;-78
2023/11/04 11:33:41;;;;;;;5.43;0.90;;;9.80;99.90;;;;;;4998325;28;37003;-80
2023/11/04 11:36:13;;;;;;;6.30;1.40;;;9.80;99.90;;;;;;4998160;28;39524;-83
2023/11/04 11:38:43;;;;;;;7.90;1.25;;;9.80;99.90;;;;;;4981056;28;37693;-82
2023/11/04 11:41:14;;;;;;;7.70;1.40;;;9.70;99.90;;;;;;4977760;28;38261;-81
2023/11/04 11:43:40;;;;;;;13.50;1.80;;;9.70;99.90;;;;;;4981661;28;37057;-83
2023/11/04 11:46:08;;;;;;;10.63;1.90;;;9.70;99.90;;;;;;4975844;28;39346;-82
2023/11/04 11:48:36;;;;;;;7.20;1.77;;;9.60;99.90;;;;;;4976120;28;40053;-81
2023/11/04 11:51:03;;;;;;;9.90;1.57;;;9.60;99.90;;;;;;4977888;28;36868;-79
2023/11/04 11:53:31;;;;;;;8.17;1.40;;;9.60;99.90;;;;;;4976611;28;47100;-82
2023/11/04 11:55:59;;;;;;;6.27;1.43;;;9.60;99.90;;;;;;4979313;28;38844;-81
2023/11/04 11:58:29;;;;;;;9.60;1.97;;;9.60;99.90;;;;;;4977194;28;37186;-83
2023/11/04 12:01:04;;;;;;;6.20;1.73;;;9.60;99.90;;;;;;4974468;28;37959;-83
2023/11/04 12:03:30;;;;;;;7.13;1.33;;;9.60;99.90;;;;;;4973458;28;46888;-81
2023/11/04 12:05:57;;;;;;;6.03;1.33;;;9.60;99.90;;;;;;4977854;28;40205;-82
2023/11/04 12:08:24;;;;;;;7.80;1.70;;;9.60;99.90;;;;;;4976165;28;37365;-79
2023/11/04 12:10:50;;;;;;;5.73;1.20;;;9.70;99.90;;;;;;4983050;28;37131;-80
2023/11/04 12:13:16;;;;;;;9.90;1.20;;;9.60;99.90;;;;;;4979114;28;37820;-78
2023/11/04 12:15:44;;;;;;;6.37;1.40;;;9.60;99.90;;;;;;4979064;28;38924;-84
2023/11/04 12:18:12;;;;;;;6.20;1.40;;;9.60;99.90;;;;;;4979562;28;38346;-82
2023/11/04 12:20:40;;;;;;;7.30;0.90;;;9.60;99.90;;;;;;4981628;28;36919;-82
2023/11/04 12:23:09;;;;;;;5.27;1.03;;;9.50;99.90;;;;;;4981295;28;36303;-82
2023/11/04 12:25:36;;;;;;;7.63;1.23;;;9.60;99.90;;;;;;4979077;28;38799;-83
2023/11/04 12:28:05;;;;;;;7.33;1.53;;;9.70;99.90;;;;;;4980374;28;36775;-81
2023/11/04 12:30:32;;;;;;;9.40;1.80;;;9.60;99.90;;;;;;4980780;28;37954;-83
2023/11/04 12:33:00;;;;;;;5.73;1.23;;;9.60;99.90;;;;;;4982533;28;37547;-81
2023/11/04 12:35:26;;;;;;;6.07;1.20;;;9.60;99.90;;;;;;4977080;28;38104;-81
2023/11/04 12:37:53;;;;;;;6.40;1.10;;;9.60;99.90;;;;;;4976424;28;38714;-80
2023/11/04 12:40:20;;;;;;;4.30;1.37;;;9.60;99.90;;;;;;4979363;28;38983;-81
2023/11/04 12:42:47;;;;;;;10.87;1.30;;;9.60;99.90;;;;;;4976330;28;39201;-80
2023/11/04 12:45:13;;;;;;;6.37;1.30;;;9.60;99.90;;;;;;4976698;28;39546;-81
2023/11/04 12:47:40;;;;;;;7.53;1.50;;;9.60;99.90;;;;;;4988327;28;38364;-81
2023/11/04 12:50:08;;;;;;;8.90;1.63;;;9.60;99.90;;;;;;4983846;28;36787;-79